Airport View

Enter ICAO identifier to see the current METAR for that AWOS.

KFNL for example

KPIT 230651Z 00000KT 10SM FEW250 06/01 A3034 RMK AO2 SLP281 T00610006

23 May 2015 07:01

Phone: 412-472-0145

Other Area AWOS: KAGC - KBVI - KBTP - KAFJ

TAF KPIT 230520Z 2306/2412 VRB03KT P6SM SCT250